Weather at Shenzhen Bao'an International Airport

Public forecast

Using degrees Celsius for public forecast. Weather courtesy of forecast.io.

Current aviation weather report (METAR) for Shenzhen Bao'an International Airport

2024/06/16 20:00 (retrieved 1 hour ago)

ZGSZ 162000Z 16005MPS 9999 FEW016 28/27 Q1005 NOSIG

Aviation forecast (TAF) for Shenzhen Bao'an International Airport

2024/06/16 18:03 (retrieved 3 hours ago)

TAF ZGSZ 161502Z 1618/1718 17004MPS 8000 FEW040 TX32/1706Z TN27/1622Z